createdAt,value
2022-08-31T00:00:25.668Z,54.33
2022-08-31T00:03:11.365Z,54.96
2022-08-31T00:05:39.548Z,55.12
2022-08-31T00:08:08.199Z,54.91
2022-08-31T00:10:37.195Z,55.59
2022-08-31T00:13:06.943Z,55.01
2022-08-31T00:15:36.753Z,55.52
2022-08-31T00:18:05.230Z,55.49
2022-08-31T00:20:34.786Z,55.88
2022-08-31T00:23:03.533Z,55.60
2022-08-31T00:25:33.669Z,56.14
2022-08-31T00:28:01.512Z,55.74
2022-08-31T00:30:30.508Z,56.59
2022-08-31T00:33:00.248Z,56.43
2022-08-31T00:35:29.284Z,56.55
2022-08-31T00:37:57.664Z,56.64
2022-08-31T00:40:26.657Z,56.78
2022-08-31T00:42:55.618Z,56.59
2022-08-31T00:45:24.431Z,56.68
2022-08-31T00:47:53.151Z,56.86
2022-08-31T00:50:25.460Z,57.09
2022-08-31T00:52:57.018Z,56.29
2022-08-31T00:55:31.079Z,56.60
2022-08-31T00:58:02.311Z,57.61
2022-08-31T01:00:30.709Z,57.25
2022-08-31T01:03:01.691Z,58.61
2022-08-31T01:05:31.535Z,59.56
2022-08-31T01:08:01.296Z,60.42
2022-08-31T01:10:33.079Z,60.58
2022-08-31T01:13:01.456Z,61.81
2022-08-31T01:15:31.334Z,62.33
2022-08-31T01:18:02.590Z,62.31
2022-08-31T01:20:38.459Z,62.71
2022-08-31T01:23:18.400Z,63.05
2022-08-31T01:25:49.952Z,63.61
2022-08-31T01:28:18.208Z,63.96
2022-08-31T01:30:59.957Z,63.83
2022-08-31T01:33:28.422Z,64.50
2022-08-31T01:35:57.481Z,64.92
2022-08-31T01:38:27.425Z,65.11
2022-08-31T01:40:58.355Z,64.98
2022-08-31T01:43:26.588Z,65.23
2022-08-31T01:45:55.290Z,65.92
2022-08-31T01:48:23.957Z,66.35
2022-08-31T01:50:52.700Z,66.29
2022-08-31T01:53:20.610Z,66.65
2022-08-31T01:55:49.995Z,67.03
2022-08-31T01:58:18.128Z,66.74
2022-08-31T02:01:10.369Z,66.28
2022-08-31T02:03:54.231Z,66.60
2022-08-31T02:06:26.101Z,66.69
2022-08-31T02:08:54.078Z,66.78
2022-08-31T02:11:23.362Z,66.84
2022-08-31T02:13:52.089Z,66.83
2022-08-31T02:16:20.267Z,66.89
2022-08-31T02:18:48.294Z,67.22
2022-08-31T02:21:16.364Z,67.70
2022-08-31T02:23:44.324Z,67.67
2022-08-31T02:26:12.815Z,67.50
2022-08-31T02:28:42.270Z,67.96
2022-08-31T02:31:11.803Z,68.49
2022-08-31T02:33:47.406Z,68.10
2022-08-31T02:36:15.357Z,68.27
2022-08-31T02:38:43.351Z,67.94
2022-08-31T02:41:11.497Z,68.36
2022-08-31T02:43:43.182Z,68.63
2022-08-31T02:46:11.764Z,68.25
2022-08-31T02:48:48.056Z,68.56
2022-08-31T02:51:19.816Z,68.68
2022-08-31T02:53:48.571Z,68.98
2022-08-31T02:56:16.557Z,68.99
2022-08-31T02:58:45.738Z,68.84
2022-08-31T03:01:13.987Z,68.61
2022-08-31T03:03:46.462Z,68.54
2022-08-31T03:06:16.820Z,68.15
2022-08-31T03:08:44.696Z,68.32
2022-08-31T03:11:13.481Z,68.50
2022-08-31T03:13:43.249Z,68.92
2022-08-31T03:16:14.475Z,69.19
2022-08-31T03:18:43.450Z,69.07
2022-08-31T03:21:11.402Z,69.24
2022-08-31T03:23:39.546Z,69.34
2022-08-31T03:26:08.209Z,69.82
2022-08-31T03:28:38.616Z,69.78
2022-08-31T03:31:27.921Z,69.50
2022-08-31T03:33:57.577Z,69.50
2022-08-31T03:36:25.822Z,69.54
2022-08-31T03:38:53.711Z,69.89
2022-08-31T03:41:24.690Z,70.62
2022-08-31T03:43:53.386Z,70.43
2022-08-31T03:46:21.488Z,70.31
2022-08-31T03:48:51.234Z,70.22
2022-08-31T03:51:20.225Z,70.40
2022-08-31T03:53:48.471Z,70.31
2022-08-31T03:56:20.130Z,70.26
2022-08-31T03:58:50.407Z,70.17
2022-08-31T04:01:42.934Z,70.52
2022-08-31T04:04:30.581Z,70.49
2022-08-31T04:07:30.588Z,70.70
2022-08-31T04:10:30.788Z,70.59
2022-08-31T04:13:17.690Z,70.44
2022-08-31T04:16:13.097Z,70.97
2022-08-31T04:18:56.251Z,71.11
2022-08-31T04:21:27.439Z,71.01
2022-08-31T04:23:56.042Z,71.00
2022-08-31T04:26:27.338Z,71.08
2022-08-31T04:28:55.819Z,70.82
2022-08-31T04:31:25.172Z,71.04
2022-08-31T04:33:53.682Z,71.20
2022-08-31T04:36:24.426Z,71.46
2022-08-31T04:38:58.092Z,70.80
2022-08-31T04:41:28.400Z,70.88
2022-08-31T04:43:58.695Z,71.07
2022-08-31T04:46:28.436Z,71.34
2022-08-31T04:48:56.753Z,71.10
2022-08-31T04:51:26.743Z,71.12
2022-08-31T04:53:56.754Z,71.73
2022-08-31T04:56:27.374Z,71.65
2022-08-31T04:58:59.536Z,71.55
2022-08-31T05:01:36.138Z,71.49
2022-08-31T05:04:39.407Z,71.65
2022-08-31T05:07:07.593Z,71.76
2022-08-31T05:09:38.490Z,71.83
2022-08-31T05:12:06.701Z,71.47
2022-08-31T05:14:35.885Z,71.72
2022-08-31T05:17:13.763Z,71.89
2022-08-31T05:19:43.705Z,72.08
2022-08-31T05:22:15.457Z,71.95
2022-08-31T05:24:48.055Z,71.92
2022-08-31T05:27:16.160Z,71.59
2022-08-31T05:29:45.366Z,72.02
2022-08-31T05:32:41.373Z,71.91
2022-08-31T05:35:11.504Z,72.00
2022-08-31T05:37:41.357Z,71.81
2022-08-31T05:40:12.914Z,71.99
2022-08-31T05:42:40.725Z,71.79
2022-08-31T05:45:09.556Z,72.03
2022-08-31T05:47:38.298Z,71.80
2022-08-31T05:50:08.256Z,71.74
2022-08-31T05:52:37.917Z,71.79
2022-08-31T05:55:06.467Z,72.00
2022-08-31T05:57:36.988Z,71.63
2022-08-31T06:00:06.156Z,71.29
2022-08-31T06:02:41.842Z,71.25
2022-08-31T06:05:12.521Z,71.56
2022-08-31T06:07:40.519Z,71.42
2022-08-31T06:10:11.900Z,71.41
2022-08-31T06:12:44.157Z,70.95
2022-08-31T06:15:13.138Z,71.08
2022-08-31T06:17:40.942Z,71.49
2022-08-31T06:20:14.268Z,71.17
2022-08-31T06:22:46.752Z,71.13
2022-08-31T06:25:24.426Z,70.85
2022-08-31T06:27:55.084Z,71.04
2022-08-31T06:30:27.136Z,70.77
2022-08-31T06:32:58.513Z,70.70
2022-08-31T06:35:30.390Z,70.19
2022-08-31T06:38:26.923Z,70.30
2022-08-31T06:41:31.193Z,70.37
2022-08-31T06:44:24.901Z,69.98
2022-08-31T06:47:07.718Z,70.14
2022-08-31T06:49:39.615Z,69.84
2022-08-31T06:52:08.178Z,69.87
2022-08-31T06:54:38.168Z,69.81
2022-08-31T06:57:24.643Z,69.34
2022-08-31T07:00:13.214Z,69.10
2022-08-31T07:03:22.708Z,68.79
2022-08-31T07:05:56.184Z,69.21
2022-08-31T07:08:24.205Z,69.37
2022-08-31T07:10:52.773Z,68.78
2022-08-31T07:13:20.771Z,68.76
2022-08-31T07:15:50.232Z,68.09
2022-08-31T07:18:18.119Z,67.19
2022-08-31T07:20:46.984Z,66.35
2022-08-31T07:23:14.911Z,65.32
2022-08-31T07:25:52.564Z,64.23
2022-08-31T07:28:20.406Z,62.71
2022-08-31T07:30:50.071Z,59.86
2022-08-31T07:33:20.636Z,57.46
2022-08-31T07:35:54.258Z,54.09
2022-08-31T07:39:00.858Z,49.58
2022-08-31T07:41:49.828Z,45.61
2022-08-31T07:44:19.487Z,39.77
2022-08-31T07:46:48.150Z,36.50
2022-08-31T07:49:19.452Z,35.60
2022-08-31T07:51:59.983Z,35.40
2022-08-31T07:54:48.571Z,33.98
2022-08-31T07:57:42.476Z,32.26
2022-08-31T08:00:14.639Z,29.04
2022-08-31T08:02:46.343Z,27.79
2022-08-31T08:05:27.017Z,27.18
2022-08-31T08:08:15.820Z,25.33
2022-08-31T08:11:10.343Z,22.46
2022-08-31T08:13:54.291Z,21.85
2022-08-31T08:16:30.347Z,20.58
2022-08-31T08:19:19.059Z,20.33
2022-08-31T08:21:50.031Z,18.59
2022-08-31T08:24:24.212Z,18.06
2022-08-31T08:27:16.912Z,19.48
2022-08-31T08:29:52.788Z,20.42
2022-08-31T08:32:25.756Z,21.95
2022-08-31T08:34:53.943Z,21.12
2022-08-31T08:37:41.130Z,20.92
2022-08-31T08:40:16.967Z,22.66
2022-08-31T08:42:45.115Z,22.53
2022-08-31T08:45:13.419Z,20.34
2022-08-31T08:47:43.158Z,19.00
2022-08-31T08:50:11.213Z,18.22
2022-08-31T08:52:44.848Z,16.97
2022-08-31T08:55:16.747Z,16.59
2022-08-31T08:57:47.666Z,15.46
2022-08-31T09:00:19.210Z,15.48
2022-08-31T09:02:58.307Z,15.27
2022-08-31T09:06:09.620Z,15.08
2022-08-31T09:09:08.087Z,15.24
2022-08-31T09:11:50.316Z,15.99
2022-08-31T09:14:49.772Z,18.26
2022-08-31T09:17:35.724Z,21.07
2022-08-31T09:20:05.726Z,24.28
2022-08-31T09:22:47.242Z,26.89
2022-08-31T09:25:53.232Z,29.35
2022-08-31T09:28:48.425Z,30.85
2022-08-31T09:31:37.580Z,32.44
2022-08-31T09:34:13.957Z,33.51
2022-08-31T09:36:42.355Z,35.49
2022-08-31T09:39:19.379Z,35.55
2022-08-31T09:41:50.180Z,38.21
2022-08-31T09:44:31.397Z,37.49
2022-08-31T09:47:02.786Z,36.54
2022-08-31T09:49:32.320Z,36.45
2022-08-31T09:52:51.003Z,36.63
2022-08-31T09:55:25.305Z,37.36
2022-08-31T09:57:58.940Z,37.48
2022-08-31T10:00:41.077Z,35.85
2022-08-31T10:03:20.058Z,36.48
2022-08-31T10:05:50.476Z,37.79
2022-08-31T10:08:33.739Z,37.48
2022-08-31T10:11:11.250Z,39.33
2022-08-31T10:13:46.592Z,39.07
2022-08-31T10:16:25.462Z,37.24
2022-08-31T10:19:01.086Z,38.04
2022-08-31T10:21:40.503Z,38.24
2022-08-31T10:24:20.648Z,38.99
2022-08-31T10:26:53.379Z,38.42
2022-08-31T10:29:32.622Z,39.23
2022-08-31T10:32:09.102Z,39.79
2022-08-31T10:34:58.807Z,40.64
2022-08-31T10:37:36.602Z,40.08
2022-08-31T10:40:08.947Z,40.98
2022-08-31T10:42:40.238Z,40.68
2022-08-31T10:45:18.568Z,39.53
2022-08-31T10:47:49.982Z,41.92
2022-08-31T10:50:28.528Z,39.90
2022-08-31T10:53:11.325Z,39.52
2022-08-31T10:55:48.961Z,39.98
2022-08-31T10:58:27.561Z,37.73
2022-08-31T11:01:03.164Z,32.87
2022-08-31T11:03:56.678Z,31.22
2022-08-31T11:06:32.945Z,28.31
2022-08-31T11:09:07.016Z,28.61
2022-08-31T11:11:43.679Z,28.60
2022-08-31T11:14:48.320Z,30.12
2022-08-31T11:17:34.537Z,32.94
2022-08-31T11:20:39.745Z,33.53
2022-08-31T11:23:47.821Z,34.02
2022-08-31T11:26:45.046Z,36.30
2022-08-31T11:29:25.567Z,36.44
2022-08-31T11:31:55.061Z,39.58
2022-08-31T11:34:29.101Z,38.69
2022-08-31T11:37:00.953Z,40.29
2022-08-31T11:39:48.411Z,40.31
2022-08-31T11:42:49.657Z,40.47
2022-08-31T11:45:29.943Z,40.14
2022-08-31T11:47:59.336Z,40.58
2022-08-31T11:50:56.844Z,40.94
2022-08-31T11:53:34.968Z,42.09
2022-08-31T11:56:03.992Z,42.82
2022-08-31T11:58:34.624Z,42.04
2022-08-31T12:01:28.208Z,40.40
2022-08-31T12:04:03.256Z,40.08
2022-08-31T12:07:07.742Z,39.74
2022-08-31T12:10:24.072Z,40.71
2022-08-31T12:13:31.131Z,39.99
2022-08-31T12:16:20.897Z,39.42
2022-08-31T12:19:13.387Z,37.55
2022-08-31T12:22:06.847Z,37.47
2022-08-31T12:24:49.502Z,36.16
2022-08-31T12:27:31.998Z,35.38
2022-08-31T12:30:19.705Z,36.41
2022-08-31T12:32:57.850Z,35.46
2022-08-31T12:35:28.188Z,36.23
2022-08-31T12:38:00.981Z,34.76
2022-08-31T12:40:33.055Z,35.34
2022-08-31T12:43:09.449Z,35.37
2022-08-31T12:46:04.613Z,36.03
2022-08-31T12:48:47.764Z,35.83
2022-08-31T12:51:27.258Z,36.37
2022-08-31T12:54:17.397Z,36.66
2022-08-31T12:56:52.274Z,35.60
2022-08-31T12:59:59.425Z,36.47
2022-08-31T13:02:23.912Z,37.83
2022-08-31T13:04:52.250Z,36.49
2022-08-31T13:07:25.935Z,35.54
2022-08-31T13:10:04.470Z,36.17
2022-08-31T13:12:32.251Z,37.92
2022-08-31T13:14:59.987Z,36.02
2022-08-31T13:17:34.920Z,36.41
2022-08-31T13:20:03.664Z,34.79
2022-08-31T13:22:33.416Z,35.25
2022-08-31T13:25:16.352Z,37.36
2022-08-31T13:27:49.271Z,37.25
2022-08-31T13:30:21.162Z,38.22
2022-08-31T13:32:52.400Z,39.47
2022-08-31T13:35:22.861Z,37.63
2022-08-31T13:38:03.767Z,39.23
2022-08-31T13:40:35.398Z,39.29
2022-08-31T13:43:04.272Z,39.82
2022-08-31T13:45:34.846Z,39.52
2022-08-31T13:48:08.648Z,40.22
2022-08-31T13:50:52.324Z,39.65
2022-08-31T13:53:42.237Z,39.96
2022-08-31T13:56:53.195Z,39.88
2022-08-31T13:59:32.349Z,39.28
2022-08-31T14:02:02.552Z,39.82
2022-08-31T14:04:43.822Z,41.10
2022-08-31T14:07:21.250Z,38.78
2022-08-31T14:09:52.116Z,39.78
2022-08-31T14:12:36.163Z,38.25
2022-08-31T14:15:21.342Z,39.07
2022-08-31T14:21:04.048Z,38.84
2022-08-31T14:23:35.360Z,42.03
2022-08-31T14:26:06.405Z,42.09
2022-08-31T14:28:42.481Z,42.55
2022-08-31T14:31:22.827Z,44.90
2022-08-31T14:34:06.989Z,42.89
2022-08-31T14:36:52.495Z,40.78
2022-08-31T14:39:27.895Z,39.19
2022-08-31T14:41:58.282Z,42.06
2022-08-31T14:44:29.553Z,41.13
2022-08-31T14:46:57.828Z,42.12
2022-08-31T14:49:25.823Z,40.98
2022-08-31T14:51:59.839Z,40.27
2022-08-31T14:54:34.632Z,40.77
2022-08-31T14:57:05.698Z,39.60
2022-08-31T14:59:35.683Z,38.63
2022-08-31T15:02:03.694Z,41.01
2022-08-31T15:04:33.639Z,39.54
2022-08-31T15:07:06.858Z,40.73
2022-08-31T15:09:42.300Z,39.97
2022-08-31T15:12:14.760Z,39.92
2022-08-31T15:14:45.074Z,39.02
2022-08-31T15:17:19.018Z,38.31
2022-08-31T15:19:50.333Z,38.63
2022-08-31T15:22:19.884Z,38.07
2022-08-31T15:24:49.614Z,36.75
2022-08-31T15:27:18.535Z,36.38
2022-08-31T15:29:49.421Z,36.50
2022-08-31T15:32:18.691Z,38.16
2022-08-31T15:34:53.254Z,37.65
2022-08-31T15:37:22.609Z,38.99
2022-08-31T15:39:57.548Z,38.72
2022-08-31T15:42:29.603Z,43.79
2022-08-31T15:45:01.125Z,39.59
2022-08-31T15:47:49.230Z,39.29
2022-08-31T15:50:23.337Z,42.58
2022-08-31T15:52:56.314Z,40.60
2022-08-31T15:55:29.908Z,43.90
2022-08-31T15:57:59.523Z,39.80
2022-08-31T16:00:40.836Z,43.66
2022-08-31T16:03:09.007Z,45.78
2022-08-31T16:05:39.645Z,46.12
2022-08-31T16:08:11.430Z,46.21
2022-08-31T16:10:44.195Z,46.40
2022-08-31T16:13:12.632Z,46.43
2022-08-31T16:16:02.125Z,44.64
2022-08-31T16:18:31.254Z,44.46
2022-08-31T16:21:06.241Z,44.80
2022-08-31T16:23:35.806Z,46.17
2022-08-31T16:26:06.389Z,44.93
2022-08-31T16:28:36.185Z,45.64
2022-08-31T16:31:05.627Z,47.23
2022-08-31T16:33:33.565Z,48.22
2022-08-31T16:36:01.515Z,48.77
2022-08-31T16:38:30.971Z,47.89
2022-08-31T16:41:03.424Z,48.65
2022-08-31T16:43:31.650Z,48.39
2022-08-31T16:46:00.578Z,48.81
2022-08-31T16:48:46.189Z,48.67
2022-08-31T16:51:16.233Z,50.73
2022-08-31T16:53:47.578Z,50.27
2022-08-31T16:56:17.325Z,51.50
2022-08-31T16:58:52.382Z,52.25
2022-08-31T17:01:25.514Z,51.59
2022-08-31T17:03:55.931Z,50.99
2022-08-31T17:06:24.879Z,53.20
2022-08-31T17:08:57.032Z,53.25
2022-08-31T17:11:32.188Z,51.86
2022-08-31T17:14:01.921Z,52.66
2022-08-31T17:16:34.693Z,52.77
2022-08-31T17:19:07.609Z,53.82
2022-08-31T17:21:48.055Z,53.58
2022-08-31T17:24:18.437Z,53.79
2022-08-31T17:26:48.254Z,53.85
2022-08-31T17:29:16.200Z,53.90
2022-08-31T17:31:46.226Z,55.07
2022-08-31T17:34:17.229Z,54.13
2022-08-31T17:36:47.779Z,54.56
2022-08-31T17:39:17.680Z,54.82
2022-08-31T17:41:48.576Z,55.05
2022-08-31T17:44:29.467Z,55.02
2022-08-31T17:47:09.874Z,54.68
2022-08-31T17:49:46.612Z,53.89
2022-08-31T17:52:31.365Z,55.58
2022-08-31T17:55:07.553Z,55.35
2022-08-31T17:57:47.148Z,55.34
2022-08-31T18:00:19.085Z,56.33
2022-08-31T18:02:49.179Z,57.50
2022-08-31T18:05:17.669Z,56.46
2022-08-31T18:07:49.956Z,57.05
2022-08-31T18:10:19.186Z,57.46
2022-08-31T18:12:48.736Z,57.43
2022-08-31T18:15:19.059Z,57.38
2022-08-31T18:17:48.154Z,57.29
2022-08-31T18:20:19.193Z,57.73
2022-08-31T18:22:52.018Z,57.50
2022-08-31T18:25:20.955Z,57.95
2022-08-31T18:28:00.091Z,57.63
2022-08-31T18:30:41.297Z,58.61
2022-08-31T18:33:14.799Z,58.65
2022-08-31T18:36:02.818Z,58.17
2022-08-31T18:38:30.960Z,59.15
2022-08-31T18:41:13.177Z,58.57
2022-08-31T18:44:00.165Z,59.88
2022-08-31T18:46:28.803Z,59.39
2022-08-31T18:49:11.856Z,58.83
2022-08-31T18:51:46.743Z,59.35
2022-08-31T18:54:17.712Z,59.36
2022-08-31T18:56:45.887Z,59.42
2022-08-31T18:59:16.514Z,59.26
2022-08-31T19:01:48.084Z,60.08
2022-08-31T19:04:47.028Z,59.50
2022-08-31T19:07:19.954Z,59.26
2022-08-31T19:09:51.220Z,60.00
2022-08-31T19:12:20.183Z,59.96
2022-08-31T19:14:55.524Z,59.99
2022-08-31T19:17:26.982Z,59.85
2022-08-31T19:19:55.202Z,60.20
2022-08-31T19:22:23.698Z,59.94
2022-08-31T19:24:54.846Z,60.47
2022-08-31T19:27:23.788Z,60.25
2022-08-31T19:29:56.406Z,60.51
2022-08-31T19:32:24.762Z,60.56
2022-08-31T19:34:53.494Z,60.67
2022-08-31T19:37:21.527Z,60.61
2022-08-31T19:39:53.182Z,61.01
2022-08-31T19:42:40.136Z,60.23
2022-08-31T19:45:25.456Z,60.43
2022-08-31T19:48:26.703Z,60.16
2022-08-31T19:51:02.940Z,60.39
2022-08-31T19:53:33.159Z,60.13
2022-08-31T19:56:11.207Z,60.58
2022-08-31T19:58:49.477Z,60.67
2022-08-31T20:01:34.159Z,61.54
2022-08-31T20:04:04.241Z,61.23
2022-08-31T20:06:32.661Z,61.07
2022-08-31T20:09:00.940Z,61.61
2022-08-31T20:11:35.381Z,61.64
2022-08-31T20:14:05.097Z,61.31
2022-08-31T20:16:41.823Z,61.69
2022-08-31T20:19:14.102Z,62.04
2022-08-31T20:21:42.744Z,61.57
2022-08-31T20:24:14.773Z,61.74
2022-08-31T20:26:51.457Z,62.09
2022-08-31T20:29:23.728Z,61.86
2022-08-31T20:31:56.196Z,61.81
2022-08-31T20:34:29.079Z,62.06
2022-08-31T20:37:01.187Z,61.88
2022-08-31T20:39:31.920Z,60.67
2022-08-31T20:42:03.442Z,61.62
2022-08-31T20:44:37.293Z,60.90
2022-08-31T20:47:25.876Z,61.32
2022-08-31T20:49:56.123Z,58.13
2022-08-31T20:52:28.036Z,59.35
2022-08-31T20:55:01.989Z,59.97
2022-08-31T20:57:33.129Z,57.20
2022-08-31T21:00:02.928Z,55.97
2022-08-31T21:02:34.057Z,54.02
2022-08-31T21:05:20.727Z,53.74
2022-08-31T21:07:52.297Z,53.94
2022-08-31T21:10:33.719Z,54.29
2022-08-31T21:13:10.994Z,55.95
2022-08-31T21:15:44.810Z,57.31
2022-08-31T21:18:17.278Z,58.35
2022-08-31T21:20:45.653Z,58.22
2022-08-31T21:23:13.631Z,58.74
2022-08-31T21:25:45.196Z,59.36
2022-08-31T21:28:15.606Z,60.15
2022-08-31T21:30:45.150Z,60.64
2022-08-31T21:33:13.052Z,61.35
2022-08-31T21:35:42.637Z,61.46
2022-08-31T21:38:12.911Z,61.66
2022-08-31T21:40:48.084Z,61.49
2022-08-31T21:43:16.112Z,62.07
2022-08-31T21:45:44.324Z,62.04
2022-08-31T21:48:12.139Z,62.27
2022-08-31T21:50:40.028Z,62.23
2022-08-31T21:53:09.335Z,62.72
2022-08-31T21:55:38.802Z,62.48
2022-08-31T21:58:06.697Z,63.02
2022-08-31T22:00:35.032Z,62.62
2022-08-31T22:03:03.352Z,62.96
2022-08-31T22:05:32.920Z,62.56
2022-08-31T22:08:01.593Z,62.72
2022-08-31T22:10:32.536Z,63.13
2022-08-31T22:13:00.796Z,63.02
2022-08-31T22:15:29.085Z,63.14
2022-08-31T22:18:15.490Z,62.92
2022-08-31T22:20:45.504Z,63.39
2022-08-31T22:23:14.372Z,63.61
2022-08-31T22:25:43.644Z,63.41
2022-08-31T22:28:12.645Z,63.28
2022-08-31T22:30:40.543Z,64.05
2022-08-31T22:33:08.709Z,63.88
2022-08-31T22:35:39.996Z,64.25
2022-08-31T22:38:09.040Z,63.97
2022-08-31T22:40:39.496Z,64.39
2022-08-31T22:43:09.842Z,64.43
2022-08-31T22:45:48.141Z,64.38
2022-08-31T22:48:16.466Z,64.68
2022-08-31T22:50:44.383Z,64.89
2022-08-31T22:53:12.227Z,65.17
2022-08-31T22:55:41.113Z,65.06
2022-08-31T22:58:10.510Z,64.78
2022-08-31T23:00:38.418Z,65.02
2022-08-31T23:03:06.747Z,65.42
2022-08-31T23:05:37.958Z,65.08
2022-08-31T23:08:07.615Z,65.69
2022-08-31T23:10:35.920Z,65.35
2022-08-31T23:13:03.823Z,65.61
2022-08-31T23:15:33.495Z,65.85
2022-08-31T23:18:02.060Z,65.98
2022-08-31T23:20:31.055Z,65.76
2022-08-31T23:23:01.003Z,66.05
2022-08-31T23:25:29.118Z,65.88
2022-08-31T23:27:56.964Z,66.28
2022-08-31T23:30:25.643Z,66.24
2022-08-31T23:32:55.036Z,66.34
2022-08-31T23:35:24.500Z,66.08
2022-08-31T23:37:54.278Z,66.17
2022-08-31T23:40:22.288Z,66.17
2022-08-31T23:42:50.510Z,66.29
2022-08-31T23:45:18.522Z,66.41
2022-08-31T23:47:46.699Z,66.07
2022-08-31T23:50:16.531Z,66.19
2022-08-31T23:52:45.821Z,66.27
2022-08-31T23:55:13.774Z,66.20
2022-08-31T23:57:41.910Z,65.85
